Time;durP1;ratioP1;P1;durP2;ratioP2;P2;SDS_P1;SDS_P2;PMS_P1;PMS_P2;Temp;Humidity;BMP_temperature;BMP_pressure;BME280_temperature;BME280_humidity;BME280_pressure;Samples;Min_cycle;Max_cycle;Signal;HPM_P1;HPM_P2
2022/09/30 00:01:52;;;;;;;6.95;2.58;;;10.70;99.90;;;;;;4971933;28;20045;-67
2022/09/30 00:04:23;;;;;;;5.13;3.03;;;10.70;99.90;;;;;;4971479;28;20035;-66
2022/09/30 00:06:51;;;;;;;6.40;2.42;;;10.70;99.90;;;;;;4954760;28;20027;-67
2022/09/30 00:09:18;;;;;;;7.10;3.42;;;10.70;99.90;;;;;;4972038;28;20062;-67
2022/09/30 00:11:45;;;;;;;5.53;2.95;;;10.70;99.90;;;;;;4954656;28;20038;-67
2022/09/30 00:14:21;;;;;;;2.53;1.80;;;10.50;99.90;;;;;;4954343;28;20033;-67
2022/09/30 00:16:47;;;;;;;5.10;2.40;;;10.60;99.90;;;;;;4954553;28;20039;-67
2022/09/30 00:19:14;;;;;;;3.63;1.88;;;10.60;99.90;;;;;;4971914;28;20031;-67
2022/09/30 00:21:40;;;;;;;10.65;3.10;;;10.50;99.90;;;;;;4971767;28;20034;-67
2022/09/30 00:24:07;;;;;;;7.40;2.30;;;10.50;99.90;;;;;;4971666;28;20483;-67
2022/09/30 00:26:33;;;;;;;3.45;2.25;;;10.30;99.90;;;;;;4954259;28;20031;-67
2022/09/30 00:29:00;;;;;;;5.28;2.45;;;10.30;99.90;;;;;;4954552;28;20478;-67
2022/09/30 00:31:33;;;;;;;3.65;2.53;;;10.30;99.90;;;;;;4971789;28;20398;-67
2022/09/30 00:34:10;;;;;;;3.38;1.88;;;10.30;99.90;;;;;;4954403;28;20027;-67
2022/09/30 00:36:50;;;;;;;3.58;1.95;;;10.30;99.90;;;;;;4955813;28;20105;-67
2022/09/30 00:39:27;;;;;;;11.07;2.20;;;10.20;99.90;;;;;;4971812;28;20042;-64
2022/09/30 00:42:00;;;;;;;3.25;1.92;;;10.30;99.90;;;;;;4972859;28;20041;-65
2022/09/30 00:44:52;;;;;;;3.83;2.03;;;10.20;99.90;;;;;;4957782;28;20039;-64
2022/09/30 00:47:48;;;;;;;4.40;2.10;;;10.20;99.90;;;;;;4975090;28;20031;-64
2022/09/30 00:50:47;;;;;;;4.53;2.08;;;10.10;99.90;;;;;;4959464;28;20451;-65
2022/09/30 00:53:20;;;;;;;5.18;1.75;;;10.20;99.90;;;;;;4974768;28;20383;-64
2022/09/30 00:56:05;;;;;;;7.00;2.42;;;10.20;99.90;;;;;;4975328;28;20417;-64
2022/09/30 00:58:44;;;;;;;3.63;1.80;;;10.10;99.90;;;;;;4974849;28;20049;-64
2022/09/30 01:01:11;;;;;;;3.10;1.58;;;10.20;99.90;;;;;;4942347;28;20030;-64
2022/09/30 01:03:49;;;;;;;4.25;2.17;;;10.30;99.90;;;;;;4974565;28;20494;-64
2022/09/30 01:06:17;;;;;;;8.40;2.45;;;10.30;99.90;;;;;;4951751;28;20105;-66
2022/09/30 01:08:44;;;;;;;2.85;2.00;;;10.20;99.90;;;;;;4974518;28;20526;-66
2022/09/30 01:11:10;;;;;;;6.40;2.33;;;10.10;99.90;;;;;;4973127;28;20099;-66
2022/09/30 01:13:38;;;;;;;4.63;2.78;;;10.10;99.90;;;;;;4974224;28;20034;-65
2022/09/30 01:16:38;;;;;;;4.03;2.15;;;10.10;99.90;;;;;;4973503;28;20035;-65
2022/09/30 01:19:23;;;;;;;3.95;1.92;;;10.10;99.90;;;;;;4973322;28;20081;-65
2022/09/30 01:23:01;;;;;;;3.83;1.88;;;10.00;99.90;;;;;;4973151;28;20113;-65
2022/09/30 01:25:54;;;;;;;2.97;1.88;;;10.00;99.90;;;;;;4952737;29;20054;-65
2022/09/30 01:28:27;;;;;;;3.95;1.90;;;9.90;99.90;;;;;;4922292;29;20086;-65
2022/09/30 01:31:23;;;;;;;2.92;2.13;;;9.90;99.90;;;;;;4953828;29;20438;-65
2022/09/30 01:34:15;;;;;;;2.85;1.70;;;9.90;99.90;;;;;;4954619;29;20094;-65
2022/09/30 01:37:02;;;;;;;4.60;2.05;;;9.90;99.90;;;;;;4954767;29;20035;-65
2022/09/30 01:40:04;;;;;;;3.65;2.50;;;9.80;99.90;;;;;;4954749;29;20031;-66
2022/09/30 01:42:46;;;;;;;6.50;1.88;;;9.80;99.90;;;;;;4968456;28;20038;-65
2022/09/30 01:45:33;;;;;;;8.75;2.42;;;9.70;99.90;;;;;;4937641;29;20098;-66
2022/09/30 01:48:33;;;;;;;2.88;2.00;;;9.70;99.90;;;;;;4937606;29;20031;-66
2022/09/30 01:51:23;;;;;;;4.70;1.92;;;9.70;99.90;;;;;;4941010;29;20071;-66
2022/09/30 01:54:13;;;;;;;2.97;1.67;;;9.70;99.90;;;;;;4939610;29;20042;-66
2022/09/30 01:56:53;;;;;;;3.28;2.45;;;9.80;99.90;;;;;;4972761;23;20086;-69
2022/09/30 01:59:35;;;;;;;3.75;1.63;;;9.70;99.90;;;;;;5001795;28;20038;-69
2022/09/30 02:02:19;;;;;;;2.97;1.35;;;9.80;99.90;;;;;;5011549;28;20432;-69
2022/09/30 02:04:57;;;;;;;6.90;1.35;;;9.80;99.90;;;;;;5012961;28;20052;-69
2022/09/30 02:07:39;;;;;;;3.03;1.73;;;9.80;99.90;;;;;;5007278;28;20035;-69
2022/09/30 02:10:14;;;;;;;3.35;1.77;;;9.80;99.90;;;;;;4991904;28;20030;-70
2022/09/30 02:12:49;;;;;;;3.88;1.88;;;9.80;99.90;;;;;;4991236;28;20140;-69
2022/09/30 02:15:23;;;;;;;6.47;2.40;;;9.80;99.90;;;;;;4983591;28;20031;-69
2022/09/30 02:18:01;;;;;;;3.97;1.77;;;9.70;99.90;;;;;;4987954;28;20081;-69
2022/09/30 02:20:33;;;;;;;5.57;1.83;;;9.60;99.90;;;;;;4988253;28;20104;-69
2022/09/30 02:23:25;;;;;;;6.70;2.05;;;9.60;99.90;;;;;;4987800;28;20038;-69
2022/09/30 02:26:04;;;;;;;4.32;1.48;;;9.70;99.90;;;;;;4973576;28;20026;-69
2022/09/30 02:28:31;;;;;;;2.95;2.25;;;9.60;99.90;;;;;;4973234;28;20030;-70
2022/09/30 02:31:01;;;;;;;2.88;1.00;;;9.70;99.90;;;;;;4973320;28;20027;-69
2022/09/30 02:33:41;;;;;;;5.68;2.83;;;9.70;99.90;;;;;;4987594;28;20118;-69
2022/09/30 02:36:43;;;;;;;5.78;2.30;;;9.70;99.90;;;;;;4986949;28;20031;-69
2022/09/30 02:39:57;;;;;;;3.22;1.83;;;9.80;99.90;;;;;;4987523;28;20082;-68
2022/09/30 02:42:27;;;;;;;3.88;2.10;;;9.70;99.90;;;;;;4980735;28;20139;-69
2022/09/30 02:44:59;;;;;;;4.07;1.75;;;9.70;99.90;;;;;;4987563;28;20038;-69
2022/09/30 02:47:48;;;;;;;4.72;2.30;;;9.90;99.90;;;;;;4987210;28;20386;-69
2022/09/30 02:50:47;;;;;;;4.43;2.10;;;9.80;99.90;;;;;;4986534;28;20127;-69
2022/09/30 02:53:42;;;;;;;2.70;1.85;;;9.80;99.90;;;;;;4985873;28;20033;-69
2022/09/30 02:56:29;;;;;;;3.47;2.17;;;9.70;99.90;;;;;;4986964;28;20422;-69
2022/09/30 02:58:56;;;;;;;5.57;2.00;;;9.80;99.90;;;;;;4972839;28;20046;-69
2022/09/30 03:01:24;;;;;;;5.90;2.58;;;9.80;99.90;;;;;;4987428;28;20520;-69
2022/09/30 03:04:02;;;;;;;2.35;1.55;;;9.70;99.90;;;;;;4986541;28;20661;-69
2022/09/30 03:06:28;;;;;;;3.83;1.77;;;9.70;99.90;;;;;;4971429;28;20569;-69
2022/09/30 03:08:54;;;;;;;3.70;2.17;;;9.60;99.90;;;;;;4971372;28;20091;-69
2022/09/30 03:11:24;;;;;;;9.75;5.70;;;9.60;99.90;;;;;;4972586;28;20043;-69
2022/09/30 03:14:50;;;;;;;11.38;6.07;;;9.60;99.90;;;;;;4986800;28;20376;-70
2022/09/30 03:17:57;;;;;;;5.55;2.50;;;9.70;99.90;;;;;;4931620;29;20036;-69
2022/09/30 03:20:38;;;;;;;3.47;2.40;;;9.70;99.90;;;;;;4952662;28;20095;-69
2022/09/30 03:23:54;;;;;;;5.57;3.20;;;9.70;99.90;;;;;;4967003;28;20051;-69
2022/09/30 03:26:56;;;;;;;3.35;2.25;;;9.70;99.90;;;;;;4967644;28;20395;-69
2022/09/30 03:29:43;;;;;;;6.63;2.30;;;9.70;99.90;;;;;;4965431;28;20031;-69
2022/09/30 03:32:28;;;;;;;5.82;2.53;;;9.60;99.90;;;;;;4966449;28;20035;-70
2022/09/30 03:35:29;;;;;;;6.38;2.25;;;9.60;99.90;;;;;;4967769;28;20054;-70
2022/09/30 03:38:51;;;;;;;3.25;1.95;;;9.60;99.90;;;;;;4952810;28;20035;-70
2022/09/30 03:41:39;;;;;;;3.53;2.05;;;9.60;99.90;;;;;;4942560;29;20114;-70
2022/09/30 03:44:21;;;;;;;3.17;1.95;;;9.50;99.90;;;;;;4952320;28;20034;-70
2022/09/30 03:47:02;;;;;;;7.25;2.33;;;9.50;99.90;;;;;;4967747;28;20038;-70
2022/09/30 03:49:35;;;;;;;3.22;1.98;;;9.40;99.90;;;;;;4967393;28;20498;-70
2022/09/30 03:52:10;;;;;;;4.75;2.03;;;9.40;99.90;;;;;;4970887;28;20126;-70
2022/09/30 03:55:01;;;;;;;4.03;2.22;;;9.30;99.90;;;;;;4970611;28;20049;-70
2022/09/30 03:57:28;;;;;;;3.97;2.30;;;9.30;99.90;;;;;;4985178;28;20034;-70
2022/09/30 03:59:57;;;;;;;4.28;1.98;;;9.20;99.90;;;;;;4971854;28;20039;-70
2022/09/30 04:02:24;;;;;;;5.57;1.92;;;9.10;99.90;;;;;;4970344;28;20034;-70
2022/09/30 04:04:50;;;;;;;2.60;1.70;;;9.10;99.90;;;;;;4970569;28;20109;-70
2022/09/30 04:07:16;;;;;;;4.13;2.45;;;9.10;99.90;;;;;;4972217;28;20518;-70
2022/09/30 04:09:42;;;;;;;4.13;2.40;;;9.10;99.90;;;;;;4969193;28;20033;-70
2022/09/30 04:12:08;;;;;;;10.07;2.15;;;9.00;99.90;;;;;;4961789;28;20075;-70
2022/09/30 04:14:34;;;;;;;4.85;2.35;;;8.80;99.90;;;;;;4974400;28;20533;-69
2022/09/30 04:17:01;;;;;;;2.75;2.17;;;8.70;99.90;;;;;;4963891;28;20034;-68
2022/09/30 04:19:27;;;;;;;2.20;1.60;;;8.70;99.90;;;;;;4972688;28;20498;-68
2022/09/30 04:21:53;;;;;;;5.53;2.45;;;8.70;99.90;;;;;;4975360;28;20058;-69
2022/09/30 04:24:20;;;;;;;4.75;2.53;;;8.60;99.90;;;;;;4973860;28;20077;-69
2022/09/30 04:26:46;;;;;;;4.97;2.53;;;8.70;99.90;;;;;;4955744;28;20126;-68
2022/09/30 04:29:12;;;;;;;7.10;2.85;;;8.60;99.90;;;;;;4983308;28;20122;-69
2022/09/30 04:31:38;;;;;;;2.78;1.85;;;8.70;99.90;;;;;;4975422;28;20092;-69
2022/09/30 04:34:03;;;;;;;4.93;2.03;;;8.70;99.90;;;;;;4974766;28;20039;-68
2022/09/30 04:36:29;;;;;;;2.95;2.05;;;8.70;99.90;;;;;;4990527;28;20394;-68
2022/09/30 04:38:55;;;;;;;4.32;2.25;;;8.80;99.90;;;;;;4981078;28;20031;-68
2022/09/30 04:41:21;;;;;;;4.38;2.78;;;8.80;99.90;;;;;;4962056;28;20182;-68
2022/09/30 04:43:47;;;;;;;5.38;2.53;;;8.80;99.90;;;;;;4958245;28;20032;-68
2022/09/30 04:46:15;;;;;;;2.47;1.73;;;8.80;99.90;;;;;;4965386;28;20038;-68
2022/09/30 04:48:44;;;;;;;3.25;1.98;;;8.90;99.90;;;;;;4980403;28;20026;-68
2022/09/30 04:51:16;;;;;;;3.15;2.40;;;8.80;99.90;;;;;;4963799;28;20074;-68
2022/09/30 04:53:42;;;;;;;3.33;2.58;;;8.80;99.90;;;;;;4989642;28;20045;-68
2022/09/30 04:56:08;;;;;;;10.65;2.58;;;8.90;99.90;;;;;;4989820;28;20034;-68
2022/09/30 04:58:34;;;;;;;5.38;2.28;;;8.90;99.90;;;;;;4980819;28;20035;-68
2022/09/30 05:01:13;;;;;;;3.65;2.25;;;8.80;99.90;;;;;;4989629;28;20045;-68
2022/09/30 05:03:39;;;;;;;5.57;2.78;;;8.60;99.90;;;;;;4977152;28;20581;-67
2022/09/30 05:06:06;;;;;;;6.38;2.45;;;8.60;99.90;;;;;;4957749;28;20068;-67
2022/09/30 05:08:33;;;;;;;3.47;2.28;;;8.60;99.90;;;;;;4951317;28;20067;-68
2022/09/30 05:11:04;;;;;;;4.43;2.47;;;8.50;99.90;;;;;;4976253;28;20125;-68
2022/09/30 05:13:39;;;;;;;4.38;2.13;;;8.60;99.90;;;;;;4969378;28;20065;-68
2022/09/30 05:16:06;;;;;;;7.53;2.97;;;8.50;99.90;;;;;;4982894;28;20045;-68
2022/09/30 05:18:33;;;;;;;3.72;2.13;;;8.30;99.90;;;;;;4965929;28;20057;-68
2022/09/30 05:21:00;;;;;;;16.25;2.45;;;8.30;99.90;;;;;;4983754;28;20034;-68
2022/09/30 05:23:29;;;;;;;6.18;2.30;;;8.30;99.90;;;;;;4974088;28;20088;-67
2022/09/30 05:25:55;;;;;;;4.05;2.35;;;8.10;99.90;;;;;;4974104;28;20497;-69
2022/09/30 05:28:21;;;;;;;8.05;2.60;;;8.10;99.90;;;;;;4973442;28;20114;-67
2022/09/30 05:30:48;;;;;;;3.58;3.20;;;8.10;99.90;;;;;;4974131;28;20427;-67
2022/09/30 05:33:14;;;;;;;4.38;2.08;;;8.10;99.90;;;;;;4988099;28;20035;-67
2022/09/30 05:35:42;;;;;;;4.78;2.60;;;8.10;99.90;;;;;;4972920;28;20070;-67
2022/09/30 05:38:09;;;;;;;3.28;1.67;;;8.10;99.90;;;;;;4988657;28;20042;-67
2022/09/30 05:40:39;;;;;;;3.90;2.47;;;8.10;99.90;;;;;;4973777;28;20113;-67
2022/09/30 05:43:05;;;;;;;3.75;2.65;;;8.10;99.90;;;;;;4969429;28;20038;-68
2022/09/30 05:45:34;;;;;;;6.13;2.38;;;8.00;99.90;;;;;;4968950;28;20406;-68
2022/09/30 05:48:00;;;;;;;5.60;2.45;;;8.00;99.90;;;;;;4962644;28;20174;-68
2022/09/30 05:50:26;;;;;;;11.52;3.17;;;8.00;99.90;;;;;;4980844;28;20034;-67
2022/09/30 05:52:52;;;;;;;4.10;2.30;;;8.00;99.90;;;;;;4987216;28;20026;-67
2022/09/30 05:55:20;;;;;;;8.45;3.92;;;8.20;99.90;;;;;;4965568;28;20046;-67
2022/09/30 05:57:51;;;;;;;4.82;2.60;;;8.30;99.90;;;;;;4987509;28;20478;-67
2022/09/30 06:00:18;;;;;;;6.95;3.03;;;8.30;99.90;;;;;;4995336;28;20030;-68
2022/09/30 06:02:44;;;;;;;9.65;2.72;;;8.20;99.90;;;;;;4974346;28;20158;-68
2022/09/30 06:05:10;;;;;;;10.25;2.50;;;8.20;99.90;;;;;;4988278;28;20062;-68
2022/09/30 06:07:37;;;;;;;4.60;2.15;;;8.30;99.90;;;;;;4973403;28;20030;-68
2022/09/30 06:10:06;;;;;;;5.97;3.45;;;8.30;99.90;;;;;;4973590;28;20045;-69
2022/09/30 06:12:35;;;;;;;3.97;2.95;;;8.30;99.90;;;;;;4970564;28;20434;-69
2022/09/30 06:15:01;;;;;;;8.57;4.07;;;8.30;99.90;;;;;;4966494;28;20054;-69
2022/09/30 06:17:27;;;;;;;3.97;3.30;;;8.40;99.90;;;;;;4970436;28;20065;-69
2022/09/30 06:19:53;;;;;;;5.90;3.35;;;8.30;99.90;;;;;;4974690;28;20062;-70
2022/09/30 06:22:18;;;;;;;4.70;2.65;;;8.30;99.90;;;;;;4972550;28;20446;-69
2022/09/30 06:24:45;;;;;;;3.72;2.83;;;8.30;99.90;;;;;;4973116;28;20023;-69
2022/09/30 06:27:11;;;;;;;5.25;3.45;;;8.40;99.90;;;;;;4973024;28;20106;-69
2022/09/30 06:29:37;;;;;;;5.32;2.85;;;8.40;99.90;;;;;;4987496;28;20114;-69
2022/09/30 06:32:03;;;;;;;18.20;4.05;;;8.50;99.90;;;;;;4986851;28;20083;-68
2022/09/30 06:34:29;;;;;;;5.93;3.47;;;8.60;99.90;;;;;;4972201;28;20035;-68
2022/09/30 06:36:55;;;;;;;7.18;3.65;;;8.70;99.90;;;;;;4972798;28;20104;-68
2022/09/30 06:39:20;;;;;;;9.13;3.92;;;8.60;99.90;;;;;;4972189;28;20487;-69
2022/09/30 06:41:46;;;;;;;9.20;3.25;;;8.70;99.90;;;;;;4972822;28;20035;-69
2022/09/30 06:44:12;;;;;;;7.32;4.57;;;8.60;99.90;;;;;;4972640;28;20537;-68
2022/09/30 06:46:38;;;;;;;10.82;3.05;;;8.40;99.90;;;;;;4972711;28;20767;-69
2022/09/30 06:49:05;;;;;;;24.42;9.55;;;8.50;99.90;;;;;;4988484;28;20085;-69
2022/09/30 06:51:35;;;;;;;7.45;3.88;;;8.70;99.90;;;;;;4990663;28;20414;-69
2022/09/30 06:54:01;;;;;;;17.20;6.25;;;8.80;99.90;;;;;;5006756;28;20034;-68
2022/09/30 06:56:28;;;;;;;11.63;6.05;;;9.20;99.90;;;;;;4979134;28;20035;-68
2022/09/30 06:58:55;;;;;;;8.77;3.92;;;9.00;99.90;;;;;;4987226;28;20039;-69
2022/09/30 07:01:23;;;;;;;6.10;3.78;;;8.30;99.90;;;;;;4972535;28;20027;-68
2022/09/30 07:03:56;;;;;;;5.70;3.08;;;8.30;99.90;;;;;;4971845;28;20118;-69
2022/09/30 07:06:24;;;;;;;9.70;3.28;;;8.40;99.90;;;;;;4987116;28;20097;-69
2022/09/30 07:08:50;;;;;;;12.73;3.90;;;8.50;99.90;;;;;;4984324;28;20105;-70
2022/09/30 07:11:16;;;;;;;8.65;3.60;;;8.60;99.90;;;;;;4969562;28;20286;-69
2022/09/30 07:13:46;;;;;;;6.32;3.28;;;8.80;99.90;;;;;;4970342;28;20442;-69
2022/09/30 07:16:13;;;;;;;7.88;4.28;;;8.70;99.90;;;;;;4971729;28;20038;-69
2022/09/30 07:18:43;;;;;;;9.85;3.03;;;8.80;99.90;;;;;;4993255;28;20031;-70
2022/09/30 07:21:11;;;;;;;6.90;3.30;;;8.80;99.90;;;;;;4971518;28;20031;-69
2022/09/30 07:23:37;;;;;;;12.57;4.30;;;8.90;99.90;;;;;;4971761;28;20499;-69
2022/09/30 07:26:04;;;;;;;8.60;4.50;;;9.00;99.90;;;;;;4971985;28;20069;-69
2022/09/30 07:28:35;;;;;;;10.05;4.05;;;9.10;99.90;;;;;;4971948;28;20030;-69
2022/09/30 07:31:10;;;;;;;6.35;3.45;;;9.20;99.90;;;;;;4972258;28;20033;-69
2022/09/30 07:33:38;;;;;;;15.13;6.18;;;9.30;99.90;;;;;;4985933;28;20030;-69
2022/09/30 07:36:07;;;;;;;6.38;3.70;;;9.20;99.90;;;;;;4971696;28;20081;-69
2022/09/30 07:38:36;;;;;;;6.47;3.45;;;9.30;99.90;;;;;;4971462;28;20092;-69
2022/09/30 07:41:07;;;;;;;12.23;4.72;;;9.40;99.90;;;;;;4986630;28;20034;-69
2022/09/30 07:43:37;;;;;;;8.27;4.60;;;9.50;99.90;;;;;;4971396;28;20035;-69
2022/09/30 07:46:07;;;;;;;10.50;4.75;;;9.60;99.90;;;;;;4986342;28;20042;-69
2022/09/30 07:48:42;;;;;;;6.70;4.15;;;9.70;99.90;;;;;;4983496;28;20039;-69
2022/09/30 07:51:12;;;;;;;8.38;4.35;;;9.80;99.90;;;;;;4980700;28;20046;-69
2022/09/30 07:53:39;;;;;;;11.80;5.40;;;9.80;99.90;;;;;;4971177;28;20114;-69
2022/09/30 07:56:07;;;;;;;7.22;4.50;;;10.10;99.90;;;;;;4986167;28;20494;-69
2022/09/30 07:58:33;;;;;;;6.47;3.33;;;10.20;99.90;;;;;;4970076;28;20070;-69
2022/09/30 08:00:58;;;;;;;7.38;3.63;;;10.10;99.90;;;;;;4969419;28;20141;-69
2022/09/30 08:03:25;;;;;;;7.97;3.95;;;10.10;99.90;;;;;;4967212;28;20038;-66
2022/09/30 08:05:51;;;;;;;7.45;4.13;;;10.10;99.90;;;;;;4970120;28;20026;-65
2022/09/30 08:08:17;;;;;;;7.75;2.90;;;10.00;99.90;;;;;;4968819;28;20050;-66
2022/09/30 08:10:43;;;;;;;6.25;3.78;;;10.00;99.90;;;;;;4971581;28;20050;-66
2022/09/30 08:13:12;;;;;;;9.05;4.25;;;10.10;99.90;;;;;;4970986;28;20046;-66
2022/09/30 08:15:39;;;;;;;8.20;3.83;;;10.30;99.90;;;;;;4970275;28;20042;-66
2022/09/30 08:18:04;;;;;;;10.20;5.18;;;10.10;99.90;;;;;;4977910;28;20030;-66
2022/09/30 08:20:30;;;;;;;10.02;5.22;;;10.00;99.90;;;;;;4990742;28;20505;-66
2022/09/30 08:22:57;;;;;;;12.52;5.32;;;9.50;99.90;;;;;;4990502;28;20462;-66
2022/09/30 08:25:25;;;;;;;6.63;3.40;;;9.60;99.90;;;;;;4985449;28;20026;-66
2022/09/30 08:27:51;;;;;;;10.88;5.38;;;9.90;99.90;;;;;;4966706;28;20031;-66
2022/09/30 08:30:16;;;;;;;10.32;5.07;;;10.10;99.90;;;;;;4984197;28;20699;-68
2022/09/30 08:32:42;;;;;;;9.82;5.93;;;9.70;99.90;;;;;;4970053;28;20438;-67
2022/09/30 08:35:08;;;;;;;13.70;5.00;;;9.40;99.90;;;;;;4970935;28;20031;-68
2022/09/30 08:37:34;;;;;;;7.95;4.78;;;9.60;99.90;;;;;;4964950;28;20423;-67
2022/09/30 08:40:00;;;;;;;9.02;5.57;;;9.20;99.90;;;;;;4963232;28;20027;-68
2022/09/30 08:42:53;;;;;;;8.52;4.93;;;9.20;99.90;;;;;;4970621;28;20509;-67
2022/09/30 08:45:39;;;;;;;10.70;5.38;;;9.60;99.90;;;;;;4963868;28;20090;-68
2022/09/30 08:48:30;;;;;;;10.15;5.63;;;9.90;99.90;;;;;;4982055;28;20038;-67
2022/09/30 08:51:26;;;;;;;10.48;5.35;;;10.20;99.90;;;;;;4970814;28;20038;-70
2022/09/30 08:53:53;;;;;;;8.60;5.20;;;10.50;99.90;;;;;;4969837;28;20039;-68
2022/09/30 08:56:41;;;;;;;12.63;5.53;;;10.40;99.90;;;;;;4983612;28;20047;-68
2022/09/30 08:59:19;;;;;;;16.02;7.25;;;10.70;99.90;;;;;;4987304;28;20529;-67
2022/09/30 09:01:50;;;;;;;18.85;6.35;;;10.70;99.90;;;;;;4969868;28;20142;-67
2022/09/30 09:04:17;;;;;;;;;;;10.60;99.90;;;;;;4971054;28;20387;-68
2022/09/30 09:07:05;;;;;;;13.95;6.43;;;10.30;99.90;;;;;;4990446;28;19921;-66
2022/09/30 09:09:52;;;;;;;11.57;6.00;;;10.80;99.90;;;;;;4982156;28;20035;-66
2022/09/30 09:12:51;;;;;;;13.05;6.50;;;10.70;99.90;;;;;;4973981;28;20031;-66
2022/09/30 09:15:44;;;;;;;11.00;5.13;;;10.60;99.90;;;;;;4966835;28;20414;-66
2022/09/30 09:18:43;;;;;;;10.20;6.53;;;10.50;99.90;;;;;;4997600;28;20042;-66
2022/09/30 09:21:40;;;;;;;11.07;6.35;;;10.70;99.90;;;;;;4976355;28;20086;-66
2022/09/30 09:24:16;;;;;;;21.25;9.13;;;10.90;99.90;;;;;;4992000;28;20453;-67
2022/09/30 09:26:42;;;;;;;14.38;6.55;;;11.10;99.90;;;;;;4993610;28;20117;-67
2022/09/30 09:29:40;;;;;;;10.60;6.57;;;11.40;99.90;;;;;;4992045;28;20113;-66
2022/09/30 09:32:18;;;;;;;11.88;7.18;;;11.60;99.90;;;;;;4954424;28;20027;-66
2022/09/30 09:34:51;;;;;;;14.95;6.65;;;11.60;99.90;;;;;;4967879;28;20113;-66
2022/09/30 09:37:17;;;;;;;13.13;6.82;;;11.90;99.90;;;;;;4987758;28;20026;-66
2022/09/30 09:40:11;;;;;;;15.20;6.90;;;11.80;99.90;;;;;;4973592;28;20065;-66
2022/09/30 09:42:57;;;;;;;13.32;6.55;;;12.00;99.90;;;;;;4953687;28;20051;-68
2022/09/30 09:45:25;;;;;;;20.95;8.05;;;12.10;99.90;;;;;;4968433;28;20039;-66
2022/09/30 09:47:52;;;;;;;20.10;7.47;;;12.50;99.90;;;;;;4969395;28;20030;-66
2022/09/30 09:50:53;;;;;;;18.63;8.05;;;12.40;99.90;;;;;;4993059;28;20034;-68
2022/09/30 09:53:39;;;;;;;18.65;7.60;;;12.50;99.90;;;;;;4991600;28;20096;-67
2022/09/30 09:56:17;;;;;;;11.73;5.65;;;12.60;99.90;;;;;;4991627;28;20042;-66
2022/09/30 09:59:09;;;;;;;13.75;6.43;;;12.90;99.90;;;;;;4992995;28;20060;-66
2022/09/30 10:01:39;;;;;;;8.55;5.55;;;13.30;99.90;;;;;;4991622;28;20057;-66
2022/09/30 10:04:14;;;;;;;17.33;7.28;;;13.40;99.90;;;;;;4991081;28;20038;-66
2022/09/30 10:07:20;;;;;;;12.45;6.63;;;13.70;99.90;;;;;;5007987;28;20084;-67
2022/09/30 10:09:46;;;;;;;13.25;5.82;;;13.80;99.90;;;;;;4991343;28;20035;-66
2022/09/30 10:12:11;;;;;;;13.35;6.20;;;13.90;99.90;;;;;;4992623;28;20042;-67
2022/09/30 10:14:48;;;;;;;18.15;8.23;;;14.20;99.90;;;;;;4992397;28;20430;-67
2022/09/30 10:17:32;;;;;;;14.63;5.40;;;14.60;99.90;;;;;;4992609;28;20046;-68
2022/09/30 10:20:21;;;;;;;15.20;5.43;;;14.90;99.90;;;;;;4992167;28;20058;-67
2022/09/30 10:22:47;;;;;;;8.45;5.28;;;15.00;99.90;;;;;;4988269;28;20044;-65
2022/09/30 10:25:13;;;;;;;10.80;5.30;;;15.60;99.90;;;;;;4971326;28;20109;-67
2022/09/30 10:27:55;;;;;;;12.48;4.68;;;15.00;99.90;;;;;;4972309;28;20031;-66
2022/09/30 10:30:49;;;;;;;9.43;4.50;;;15.30;99.90;;;;;;4987162;28;20035;-66
2022/09/30 10:33:28;;;;;;;10.85;6.03;;;15.60;99.90;;;;;;4971271;28;20028;-66
2022/09/30 10:36:10;;;;;;;13.38;5.57;;;16.00;99.90;;;;;;4985560;28;20035;-66
2022/09/30 10:38:55;;;;;;;14.88;4.82;;;15.90;99.90;;;;;;4986074;28;20031;-66
2022/09/30 10:41:25;;;;;;;11.75;4.55;;;15.30;99.90;;;;;;4984189;28;20066;-66
2022/09/30 10:43:55;;;;;;;10.68;4.22;;;16.20;99.90;;;;;;4985135;28;20027;-66
2022/09/30 10:46:40;;;;;;;7.93;4.05;;;16.60;99.90;;;;;;4986064;28;20027;-66
2022/09/30 10:49:29;;;;;;;4.82;2.83;;;16.50;99.90;;;;;;5001122;28;20026;-66
2022/09/30 10:51:58;;;;;;;7.00;3.70;;;16.60;99.90;;;;;;4990746;28;20023;-66
2022/09/30 10:54:45;;;;;;;7.65;4.15;;;16.90;99.90;;;;;;4990352;28;20030;-66
2022/09/30 10:57:28;;;;;;;7.40;3.47;;;16.70;99.90;;;;;;4991765;28;20096;-66
2022/09/30 11:00:18;;;;;;;8.50;3.97;;;16.70;99.90;;;;;;4990841;28;20022;-66
2022/09/30 11:03:04;;;;;;;13.52;3.78;;;17.20;99.90;;;;;;4991619;28;20030;-66
2022/09/30 11:05:44;;;;;;;13.65;4.40;;;17.60;99.90;;;;;;4990399;28;20486;-66
2022/09/30 11:08:28;;;;;;;9.23;3.22;;;17.50;99.90;;;;;;4991389;28;20026;-66
2022/09/30 11:11:15;;;;;;;7.78;3.25;;;17.00;99.90;;;;;;4990324;28;20042;-66
2022/09/30 11:14:18;;;;;;;9.18;3.22;;;17.30;99.90;;;;;;4990184;28;20509;-66
2022/09/30 11:17:15;;;;;;;7.50;3.33;;;17.20;99.90;;;;;;4990514;28;20038;-66
2022/09/30 11:20:14;;;;;;;7.35;3.47;;;17.50;99.90;;;;;;4990201;28;20449;-66
2022/09/30 11:22:51;;;;;;;10.85;3.10;;;18.20;99.90;;;;;;4989718;28;20030;-68
2022/09/30 11:25:45;;;;;;;4.13;2.00;;;19.40;99.70;;;;;;4966849;28;20030;-68
2022/09/30 11:29:05;;;;;;;7.57;2.95;;;19.00;99.80;;;;;;4983717;28;20154;-67
2022/09/30 11:31:43;;;;;;;5.43;2.07;;;19.50;99.80;;;;;;4984808;28;20031;-67
2022/09/30 11:34:30;;;;;;;5.93;2.60;;;19.10;99.90;;;;;;4970970;28;20057;-66
2022/09/30 11:37:36;;;;;;;5.45;1.95;;;20.20;99.70;;;;;;4971964;28;20549;-68
2022/09/30 11:40:41;;;;;;;6.80;2.67;;;20.90;97.10;;;;;;4971616;28;20371;-68
2022/09/30 11:43:38;;;;;;;9.32;3.33;;;20.10;96.60;;;;;;4985395;28;20035;-66
2022/09/30 11:46:48;;;;;;;8.13;2.60;;;20.00;96.30;;;;;;4971535;28;20359;-67
2022/09/30 11:49:43;;;;;;;6.47;1.92;;;20.50;97.70;;;;;;4913720;29;20108;-67
2022/09/30 11:52:35;;;;;;;10.77;3.13;;;21.50;96.10;;;;;;4971078;28;20043;-67
2022/09/30 11:55:40;;;;;;;7.30;2.33;;;20.00;95.10;;;;;;4986489;28;20100;-68
2022/09/30 11:58:17;;;;;;;6.50;3.15;;;18.20;99.80;;;;;;4970061;28;20035;-68
2022/09/30 12:00:53;;;;;;;9.77;2.63;;;17.70;99.90;;;;;;4986111;28;20041;-67
2022/09/30 12:03:32;;;;;;;11.55;2.72;;;17.70;99.90;;;;;;4985549;28;20030;-67
2022/09/30 12:06:08;;;;;;;4.63;2.40;;;18.50;99.90;;;;;;4966921;28;20094;-66
2022/09/30 12:08:49;;;;;;;5.97;3.28;;;20.30;97.60;;;;;;4979318;28;20449;-66
2022/09/30 12:11:34;;;;;;;5.10;2.37;;;19.60;95.90;;;;;;4971589;28;20035;-66
2022/09/30 12:14:10;;;;;;;8.43;2.75;;;19.90;95.90;;;;;;4970049;28;20030;-66
2022/09/30 12:16:36;;;;;;;7.38;1.83;;;20.10;96.20;;;;;;4970499;28;20038;-67
2022/09/30 12:19:19;;;;;;;5.10;2.25;;;19.60;96.50;;;;;;4986777;28;20038;-67
2022/09/30 12:21:55;;;;;;;4.28;2.15;;;18.50;98.30;;;;;;4989548;28;20086;-67
2022/09/30 12:24:44;;;;;;;5.30;2.33;;;18.10;98.10;;;;;;4990691;28;20023;-66
2022/09/30 12:27:26;;;;;;;9.05;2.40;;;18.10;98.70;;;;;;4990478;28;20042;-67
2022/09/30 12:30:19;;;;;;;5.47;2.88;;;18.40;99.90;;;;;;4989629;28;20019;-67
2022/09/30 12:33:31;;;;;;;4.78;1.95;;;19.80;97.40;;;;;;4982560;28;20030;-68
2022/09/30 12:36:27;;;;;;;3.08;1.42;;;19.80;95.40;;;;;;4971107;28;20035;-67
2022/09/30 12:39:44;;;;;;;4.10;1.70;;;20.90;93.80;;;;;;4973018;28;20031;-67
2022/09/30 12:42:20;;;;;;;4.78;1.60;;;21.10;94.30;;;;;;4974765;28;20043;-68
2022/09/30 12:45:08;;;;;;;5.15;1.33;;;21.00;93.60;;;;;;4989251;28;20054;-67
2022/09/30 12:47:52;;;;;;;5.43;2.00;;;20.90;92.90;;;;;;4991874;28;20390;-67
2022/09/30 12:50:33;;;;;;;3.33;1.75;;;22.40;92.50;;;;;;4992680;28;20044;-68
2022/09/30 12:53:23;;;;;;;5.07;1.48;;;22.90;92.50;;;;;;4992843;28;20089;-66
2022/09/30 12:55:53;;;;;;;6.55;1.85;;;23.20;90.40;;;;;;4994438;28;20386;-67
2022/09/30 12:58:30;;;;;;;3.85;1.98;;;24.70;88.70;;;;;;4992788;28;20035;-68
2022/09/30 13:01:15;;;;;;;4.75;1.80;;;22.30;88.80;;;;;;4993590;28;20027;-68
2022/09/30 13:03:52;;;;;;;3.30;1.38;;;21.00;92.40;;;;;;4993819;28;20096;-68
2022/09/30 13:06:22;;;;;;;2.40;1.25;;;22.30;91.80;;;;;;4957663;28;20118;-68
2022/09/30 13:09:10;;;;;;;5.78;1.60;;;23.40;88.60;;;;;;4969991;28;20035;-67
2022/09/30 13:11:58;;;;;;;3.63;1.33;;;22.50;91.00;;;;;;4969226;28;20035;-68
2022/09/30 13:14:42;;;;;;;4.57;0.90;;;22.50;87.00;;;;;;4954585;29;20062;-68
2022/09/30 13:17:07;;;;;;;3.75;0.93;;;22.80;88.40;;;;;;4969737;28;20360;-67
2022/09/30 13:19:46;;;;;;;2.67;0.60;;;23.20;85.60;;;;;;5008525;28;20049;-68
2022/09/30 13:22:22;;;;;;;1.92;0.90;;;22.10;82.00;;;;;;4993326;28;20235;-67
2022/09/30 13:25:01;;;;;;;1.92;0.80;;;22.20;85.10;;;;;;4993977;28;20034;-67
2022/09/30 13:27:52;;;;;;;4.32;1.08;;;21.50;86.10;;;;;;4979669;28;20062;-68
2022/09/30 13:30:17;;;;;;;1.42;0.95;;;19.80;90.70;;;;;;4973728;28;20034;-67
2022/09/30 13:33:26;;;;;;;0.88;0.70;;;19.40;90.50;;;;;;4956230;28;20134;-66
2022/09/30 13:35:58;;;;;;;2.03;0.77;;;19.50;91.20;;;;;;4954632;29;20031;-68
2022/09/30 13:38:36;;;;;;;1.98;1.00;;;20.00;91.10;;;;;;4954577;29;20047;-67
2022/09/30 13:41:13;;;;;;;1.40;0.80;;;20.60;91.20;;;;;;4954439;28;20031;-66
2022/09/30 13:44:03;;;;;;;1.63;0.82;;;20.30;91.30;;;;;;4968189;28;20039;-67